Aldenville, Pennsylvania
Current Conditions -  °F | °C
As of 6:15 PM on Thursday 25 Dec 2014 (Local Time) from KMSV Reporting Station
Overcast Overcast  
Wind Chill: 31°   Ceiling: 3500
Heat Index: 39°   Visibility: 10mi
Dew Point: 28°   Wind: 15mph
Humidity: 65%   Direction: 290°WNW
Pressure: 29.95"   Gusts: 25mph
Location:  41.65°N, 75.36°W
Report Text: KMSV 252315Z AUTO 29013G22KT 10SM OVC035 04/M02 A2995 RMK AO1
Loading
Personal Weather Stations






























Interactive Weather Map New forecast layout! Learn more

10-Day Weather Forecast

Advertisements
Track Severe Weather on mobile